sensor_id;sensor_type;location;lat;lon;timestamp;temperature;humidity
50162;DHT22;36061;48.116;11.612;2022-07-19T04:02:20;18.40;79.20
50162;DHT22;36061;48.116;11.612;2022-07-19T04:04:46;18.50;79.20
50162;DHT22;36061;48.116;11.612;2022-07-19T04:07:12;18.50;79.20
50162;DHT22;36061;48.116;11.612;2022-07-19T04:09:38;18.50;79.20
50162;DHT22;36061;48.116;11.612;2022-07-19T04:12:04;18.50;79.50
50162;DHT22;36061;48.116;11.612;2022-07-19T04:14:29;18.50;79.70
50162;DHT22;36061;48.116;11.612;2022-07-19T04:16:55;18.50;79.80
50162;DHT22;36061;48.116;11.612;2022-07-19T04:19:21;18.50;80.00
50162;DHT22;36061;48.116;11.612;2022-07-19T04:21:47;18.60;79.90
50162;DHT22;36061;48.116;11.612;2022-07-19T04:24:12;18.60;79.90
50162;DHT22;36061;48.116;11.612;2022-07-19T04:26:38;18.60;79.90
50162;DHT22;36061;48.116;11.612;2022-07-19T04:29:04;18.60;79.80
50162;DHT22;36061;48.116;11.612;2022-07-19T04:31:30;18.70;79.80
50162;DHT22;36061;48.116;11.612;2022-07-19T04:33:55;18.70;79.70
50162;DHT22;36061;48.116;11.612;2022-07-19T04:36:21;18.80;79.50
50162;DHT22;36061;48.116;11.612;2022-07-19T04:38:47;18.80;79.30
50162;DHT22;36061;48.116;11.612;2022-07-19T04:41:13;18.90;79.00
50162;DHT22;36061;48.116;11.612;2022-07-19T04:43:38;19.20;78.80
50162;DHT22;36061;48.116;11.612;2022-07-19T04:46:04;19.40;77.60
50162;DHT22;36061;48.116;11.612;2022-07-19T04:48:30;19.70;76.40
50162;DHT22;36061;48.116;11.612;2022-07-19T04:50:56;19.90;75.60
50162;DHT22;36061;48.116;11.612;2022-07-19T04:53:22;20.00;75.10
50162;DHT22;36061;48.116;11.612;2022-07-19T04:55:48;20.10;75.20
50162;DHT22;36061;48.116;11.612;2022-07-19T04:58:13;20.20;76.50
50162;DHT22;36061;48.116;11.612;2022-07-19T05:00:39;20.30;77.30
50162;DHT22;36061;48.116;11.612;2022-07-19T05:03:05;20.60;76.90
50162;DHT22;36061;48.116;11.612;2022-07-19T05:05:31;21.10;75.70
50162;DHT22;36061;48.116;11.612;2022-07-19T05:07:57;21.80;74.70
50162;DHT22;36061;48.116;11.612;2022-07-19T05:10:23;22.70;72.40
50162;DHT22;36061;48.116;11.612;2022-07-19T05:12:49;23.60;70.50
50162;DHT22;36061;48.116;11.612;2022-07-19T05:15:14;24.40;68.10
50162;DHT22;36061;48.116;11.612;2022-07-19T05:17:40;25.00;65.70
50162;DHT22;36061;48.116;11.612;2022-07-19T05:20:08;25.60;63.70
50162;DHT22;36061;48.116;11.612;2022-07-19T05:22:33;26.10;62.60
50162;DHT22;36061;48.116;11.612;2022-07-19T05:25:00;26.40;61.10
50162;DHT22;36061;48.116;11.612;2022-07-19T05:27:26;26.50;59.60
50162;DHT22;36061;48.116;11.612;2022-07-19T05:29:51;26.40;59.30
50162;DHT22;36061;48.116;11.612;2022-07-19T05:32:17;26.10;58.90
50162;DHT22;36061;48.116;11.612;2022-07-19T05:34:43;25.80;59.60
50162;DHT22;36061;48.116;11.612;2022-07-19T05:37:10;25.60;59.70
50162;DHT22;36061;48.116;11.612;2022-07-19T05:39:36;25.30;60.30
50162;DHT22;36061;48.116;11.612;2022-07-19T05:42:01;25.20;60.90
50162;DHT22;36061;48.116;11.612;2022-07-19T05:44:27;25.10;61.60
50162;DHT22;36061;48.116;11.612;2022-07-19T05:46:53;25.40;60.00
50162;DHT22;36061;48.116;11.612;2022-07-19T05:49:19;25.60;59.40
50162;DHT22;36061;48.116;11.612;2022-07-19T05:51:45;25.70;59.10
50162;DHT22;36061;48.116;11.612;2022-07-19T05:54:10;25.50;59.00
50162;DHT22;36061;48.116;11.612;2022-07-19T05:56:36;25.10;59.40
50162;DHT22;36061;48.116;11.612;2022-07-19T05:59:02;24.80;60.60
50162;DHT22;36061;48.116;11.612;2022-07-19T06:01:28;24.50;61.50
50162;DHT22;36061;48.116;11.612;2022-07-19T06:03:58;24.30;62.30
50162;DHT22;36061;48.116;11.612;2022-07-19T06:06:26;24.10;62.60
50162;DHT22;36061;48.116;11.612;2022-07-19T06:08:52;23.90;63.20
50162;DHT22;36061;48.116;11.612;2022-07-19T06:11:18;23.70;63.50
50162;DHT22;36061;48.116;11.612;2022-07-19T06:13:45;23.60;64.40
50162;DHT22;36061;48.116;11.612;2022-07-19T06:16:11;23.50;64.50
50162;DHT22;36061;48.116;11.612;2022-07-19T06:18:38;23.40;65.00
50162;DHT22;36061;48.116;11.612;2022-07-19T06:21:08;23.50;65.10
50162;DHT22;36061;48.116;11.612;2022-07-19T06:23:35;23.50;64.60
50162;DHT22;36061;48.116;11.612;2022-07-19T06:26:01;23.50;65.00
50162;DHT22;36061;48.116;11.612;2022-07-19T06:28:27;23.40;65.40
50162;DHT22;36061;48.116;11.612;2022-07-19T06:30:53;23.40;65.60
50162;DHT22;36061;48.116;11.612;2022-07-19T06:33:19;23.50;65.60
50162;DHT22;36061;48.116;11.612;2022-07-19T06:35:45;23.40;65.40
50162;DHT22;36061;48.116;11.612;2022-07-19T06:38:11;23.50;65.70
50162;DHT22;36061;48.116;11.612;2022-07-19T06:40:36;23.50;65.60
50162;DHT22;36061;48.116;11.612;2022-07-19T06:43:02;23.50;65.80
50162;DHT22;36061;48.116;11.612;2022-07-19T06:45:28;23.60;65.50
50162;DHT22;36061;48.116;11.612;2022-07-19T06:47:54;23.60;65.60
50162;DHT22;36061;48.116;11.612;2022-07-19T06:50:20;23.70;65.40
50162;DHT22;36061;48.116;11.612;2022-07-19T06:52:46;23.70;65.00
50162;DHT22;36061;48.116;11.612;2022-07-19T06:55:12;23.70;65.10
50162;DHT22;36061;48.116;11.612;2022-07-19T06:57:38;23.80;65.40
50162;DHT22;36061;48.116;11.612;2022-07-19T07:00:06;23.80;65.40
50162;DHT22;36061;48.116;11.612;2022-07-19T07:02:33;23.90;64.90
50162;DHT22;36061;48.116;11.612;2022-07-19T07:05:00;24.00;65.00
50162;DHT22;36061;48.116;11.612;2022-07-19T07:07:26;24.00;65.30
50162;DHT22;36061;48.116;11.612;2022-07-19T07:09:52;24.10;65.40
50162;DHT22;36061;48.116;11.612;2022-07-19T07:12:18;24.20;65.30
50162;DHT22;36061;48.116;11.612;2022-07-19T07:14:44;24.30;65.40
50162;DHT22;36061;48.116;11.612;2022-07-19T07:17:09;24.40;65.50
50162;DHT22;36061;48.116;11.612;2022-07-19T07:19:35;24.70;64.60
50162;DHT22;36061;48.116;11.612;2022-07-19T07:22:01;25.00;64.40
50162;DHT22;36061;48.116;11.612;2022-07-19T07:24:28;25.20;63.70
50162;DHT22;36061;48.116;11.612;2022-07-19T07:26:54;25.30;62.80
50162;DHT22;36061;48.116;11.612;2022-07-19T07:29:20;25.30;62.20
50162;DHT22;36061;48.116;11.612;2022-07-19T07:31:46;25.30;62.90
50162;DHT22;36061;48.116;11.612;2022-07-19T07:34:12;25.30;62.90
50162;DHT22;36061;48.116;11.612;2022-07-19T07:36:37;25.30;62.30
50162;DHT22;36061;48.116;11.612;2022-07-19T07:39:03;25.30;62.20
50162;DHT22;36061;48.116;11.612;2022-07-19T07:41:29;25.20;62.40
50162;DHT22;36061;48.116;11.612;2022-07-19T07:43:55;25.10;62.40
50162;DHT22;36061;48.116;11.612;2022-07-19T07:46:21;25.10;61.50
50162;DHT22;36061;48.116;11.612;2022-07-19T07:48:46;25.10;61.50
50162;DHT22;36061;48.116;11.612;2022-07-19T07:51:12;25.10;61.40
50162;DHT22;36061;48.116;11.612;2022-07-19T07:53:38;25.20;61.30
50162;DHT22;36061;48.116;11.612;2022-07-19T07:56:04;25.20;60.80
50162;DHT22;36061;48.116;11.612;2022-07-19T07:58:30;25.20;60.80
50162;DHT22;36061;48.116;11.612;2022-07-19T08:00:56;25.30;61.00
50162;DHT22;36061;48.116;11.612;2022-07-19T08:03:21;25.30;60.90
50162;DHT22;36061;48.116;11.612;2022-07-19T08:05:47;25.40;59.50
50162;DHT22;36061;48.116;11.612;2022-07-19T08:08:14;25.50;59.00
50162;DHT22;36061;48.116;11.612;2022-07-19T08:10:40;25.40;58.90
50162;DHT22;36061;48.116;11.612;2022-07-19T08:13:06;25.40;58.50
50162;DHT22;36061;48.116;11.612;2022-07-19T08:15:33;25.50;58.30
50162;DHT22;36061;48.116;11.612;2022-07-19T08:17:59;25.60;56.90
50162;DHT22;36061;48.116;11.612;2022-07-19T08:20:25;25.60;57.10
50162;DHT22;36061;48.116;11.612;2022-07-19T08:22:51;25.70;56.00
50162;DHT22;36061;48.116;11.612;2022-07-19T08:25:17;25.80;56.20
50162;DHT22;36061;48.116;11.612;2022-07-19T08:27:43;25.80;55.90
50162;DHT22;36061;48.116;11.612;2022-07-19T08:30:10;25.80;56.20
50162;DHT22;36061;48.116;11.612;2022-07-19T08:32:37;25.90;56.30
50162;DHT22;36061;48.116;11.612;2022-07-19T08:35:07;26.00;56.40
50162;DHT22;36061;48.116;11.612;2022-07-19T08:37:34;26.10;56.20
50162;DHT22;36061;48.116;11.612;2022-07-19T08:40:00;26.10;56.10
50162;DHT22;36061;48.116;11.612;2022-07-19T08:42:26;26.30;55.70
50162;DHT22;36061;48.116;11.612;2022-07-19T08:44:53;26.30;55.90
50162;DHT22;36061;48.116;11.612;2022-07-19T08:47:20;26.40;54.70
50162;DHT22;36061;48.116;11.612;2022-07-19T08:49:47;26.50;53.70
50162;DHT22;36061;48.116;11.612;2022-07-19T08:52:13;26.60;53.10
50162;DHT22;36061;48.116;11.612;2022-07-19T08:54:40;26.70;53.00
50162;DHT22;36061;48.116;11.612;2022-07-19T08:57:06;26.70;52.80
50162;DHT22;36061;48.116;11.612;2022-07-19T08:59:50;26.80;52.00
50162;DHT22;36061;48.116;11.612;2022-07-19T09:02:16;26.90;51.50
50162;DHT22;36061;48.116;11.612;2022-07-19T09:04:42;27.00;51.60
50162;DHT22;36061;48.116;11.612;2022-07-19T09:07:09;27.00;50.80
50162;DHT22;36061;48.116;11.612;2022-07-19T09:09:35;27.10;50.70
50162;DHT22;36061;48.116;11.612;2022-07-19T09:12:04;27.10;49.50
50162;DHT22;36061;48.116;11.612;2022-07-19T09:14:33;27.20;48.70
50162;DHT22;36061;48.116;11.612;2022-07-19T09:17:00;27.30;48.80
50162;DHT22;36061;48.116;11.612;2022-07-19T09:19:29;27.30;48.60
50162;DHT22;36061;48.116;11.612;2022-07-19T09:24:25;27.40;48.00
50162;DHT22;36061;48.116;11.612;2022-07-19T09:27:03;27.50;48.40
50162;DHT22;36061;48.116;11.612;2022-07-19T09:29:31;27.60;47.50
50162;DHT22;36061;48.116;11.612;2022-07-19T09:32:05;27.70;47.40
50162;DHT22;36061;48.116;11.612;2022-07-19T09:34:55;27.80;47.80
50162;DHT22;36061;48.116;11.612;2022-07-19T09:37:25;27.90;48.60
50162;DHT22;36061;48.116;11.612;2022-07-19T09:39:58;27.90;48.10
50162;DHT22;36061;48.116;11.612;2022-07-19T09:45:05;28.10;47.50
50162;DHT22;36061;48.116;11.612;2022-07-19T09:47:45;28.20;47.60
50162;DHT22;36061;48.116;11.612;2022-07-19T09:50:16;28.20;48.30
50162;DHT22;36061;48.116;11.612;2022-07-19T09:52:44;28.20;47.90
50162;DHT22;36061;48.116;11.612;2022-07-19T09:55:11;28.30;47.10
50162;DHT22;36061;48.116;11.612;2022-07-19T09:57:42;28.30;47.60
50162;DHT22;36061;48.116;11.612;2022-07-19T10:00:09;28.40;47.70
50162;DHT22;36061;48.116;11.612;2022-07-19T10:02:40;28.40;47.50
50162;DHT22;36061;48.116;11.612;2022-07-19T10:05:07;28.40;48.10
50162;DHT22;36061;48.116;11.612;2022-07-19T10:07:35;28.40;48.30
50162;DHT22;36061;48.116;11.612;2022-07-19T10:10:12;28.40;48.40
50162;DHT22;36061;48.116;11.612;2022-07-19T10:12:44;28.40;48.80
50162;DHT22;36061;48.116;11.612;2022-07-19T10:15:12;28.40;48.80
50162;DHT22;36061;48.116;11.612;2022-07-19T10:17:46;28.40;48.30
50162;DHT22;36061;48.116;11.612;2022-07-19T10:20:16;28.50;47.90
50162;DHT22;36061;48.116;11.612;2022-07-19T10:22:44;28.50;47.20
50162;DHT22;36061;48.116;11.612;2022-07-19T10:25:15;28.50;47.70
50162;DHT22;36061;48.116;11.612;2022-07-19T10:27:48;28.50;48.80
50162;DHT22;36061;48.116;11.612;2022-07-19T10:32:45;28.60;47.50
50162;DHT22;36061;48.116;11.612;2022-07-19T10:35:30;28.60;46.70
50162;DHT22;36061;48.116;11.612;2022-07-19T10:43:09;28.70;43.90
50162;DHT22;36061;48.116;11.612;2022-07-19T10:45:37;28.80;44.00
50162;DHT22;36061;48.116;11.612;2022-07-19T10:48:11;28.90;44.40
50162;DHT22;36061;48.116;11.612;2022-07-19T10:50:47;28.90;44.90
50162;DHT22;36061;48.116;11.612;2022-07-19T10:56:21;29.10;45.90
50162;DHT22;36061;48.116;11.612;2022-07-19T10:58:51;29.20;45.30
50162;DHT22;36061;48.116;11.612;2022-07-19T11:01:19;29.20;44.60
50162;DHT22;36061;48.116;11.612;2022-07-19T11:03:50;29.30;45.00
50162;DHT22;36061;48.116;11.612;2022-07-19T11:06:24;29.40;43.60
50162;DHT22;36061;48.116;11.612;2022-07-19T11:08:59;29.50;43.90
50162;DHT22;36061;48.116;11.612;2022-07-19T11:11:26;29.50;42.00
50162;DHT22;36061;48.116;11.612;2022-07-19T11:13:54;29.50;42.90
50162;DHT22;36061;48.116;11.612;2022-07-19T11:16:23;29.60;43.60
50162;DHT22;36061;48.116;11.612;2022-07-19T11:18:49;29.60;43.90
50162;DHT22;36061;48.116;11.612;2022-07-19T11:21:16;29.60;42.60
50162;DHT22;36061;48.116;11.612;2022-07-19T11:23:43;29.70;43.30
50162;DHT22;36061;48.116;11.612;2022-07-19T11:26:13;29.70;43.80
50162;DHT22;36061;48.116;11.612;2022-07-19T11:28:41;29.60;43.20
50162;DHT22;36061;48.116;11.612;2022-07-19T11:31:18;29.60;42.80
50162;DHT22;36061;48.116;11.612;2022-07-19T11:33:46;29.60;42.90
50162;DHT22;36061;48.116;11.612;2022-07-19T11:36:14;29.60;42.90
50162;DHT22;36061;48.116;11.612;2022-07-19T11:38:44;29.60;42.70
50162;DHT22;36061;48.116;11.612;2022-07-19T11:41:14;29.70;41.90
50162;DHT22;36061;48.116;11.612;2022-07-19T11:43:43;29.70;41.30
50162;DHT22;36061;48.116;11.612;2022-07-19T11:46:09;29.70;43.00
50162;DHT22;36061;48.116;11.612;2022-07-19T11:48:34;29.70;42.30
50162;DHT22;36061;48.116;11.612;2022-07-19T11:51:09;29.70;40.90
50162;DHT22;36061;48.116;11.612;2022-07-19T11:53:37;29.80;39.80
50162;DHT22;36061;48.116;11.612;2022-07-19T11:56:05;29.80;41.90
50162;DHT22;36061;48.116;11.612;2022-07-19T11:58:31;29.90;41.70
50162;DHT22;36061;48.116;11.612;2022-07-19T12:01:03;29.90;41.50
50162;DHT22;36061;48.116;11.612;2022-07-19T12:03:29;29.90;40.80
50162;DHT22;36061;48.116;11.612;2022-07-19T12:05:58;29.90;42.00
50162;DHT22;36061;48.116;11.612;2022-07-19T12:11:18;29.90;42.20
50162;DHT22;36061;48.116;11.612;2022-07-19T12:13:44;29.90;41.20
50162;DHT22;36061;48.116;11.612;2022-07-19T12:16:11;29.90;41.60
50162;DHT22;36061;48.116;11.612;2022-07-19T12:18:56;29.90;42.30
50162;DHT22;36061;48.116;11.612;2022-07-19T12:32:04;30.10;42.80
50162;DHT22;36061;48.116;11.612;2022-07-19T12:34:42;30.10;43.20
50162;DHT22;36061;48.116;11.612;2022-07-19T12:37:25;30.20;43.30
50162;DHT22;36061;48.116;11.612;2022-07-19T12:45:11;30.20;43.50
50162;DHT22;36061;48.116;11.612;2022-07-19T12:47:37;30.20;42.80
50162;DHT22;36061;48.116;11.612;2022-07-19T12:50:03;30.20;42.70
50162;DHT22;36061;48.116;11.612;2022-07-19T12:52:30;30.20;42.50
50162;DHT22;36061;48.116;11.612;2022-07-19T12:54:55;30.20;42.80
50162;DHT22;36061;48.116;11.612;2022-07-19T12:57:21;30.10;43.20
50162;DHT22;36061;48.116;11.612;2022-07-19T12:59:47;30.10;43.90
50162;DHT22;36061;48.116;11.612;2022-07-19T13:02:14;30.20;42.70
50162;DHT22;36061;48.116;11.612;2022-07-19T13:04:42;30.20;43.40
50162;DHT22;36061;48.116;11.612;2022-07-19T13:07:10;30.30;44.00
50162;DHT22;36061;48.116;11.612;2022-07-19T13:09:36;30.30;44.40
50162;DHT22;36061;48.116;11.612;2022-07-19T13:12:04;30.40;44.30
50162;DHT22;36061;48.116;11.612;2022-07-19T13:14:31;30.30;44.30
50162;DHT22;36061;48.116;11.612;2022-07-19T13:16:57;30.30;43.80
50162;DHT22;36061;48.116;11.612;2022-07-19T13:19:24;30.30;44.20
50162;DHT22;36061;48.116;11.612;2022-07-19T13:21:51;30.30;44.40
50162;DHT22;36061;48.116;11.612;2022-07-19T13:24:17;30.40;43.20
50162;DHT22;36061;48.116;11.612;2022-07-19T13:26:43;30.50;43.40
50162;DHT22;36061;48.116;11.612;2022-07-19T13:29:09;30.40;44.00
50162;DHT22;36061;48.116;11.612;2022-07-19T13:31:35;30.50;44.60
50162;DHT22;36061;48.116;11.612;2022-07-19T13:34:02;30.40;45.20
50162;DHT22;36061;48.116;11.612;2022-07-19T13:36:28;30.50;45.40
50162;DHT22;36061;48.116;11.612;2022-07-19T13:38:54;30.50;44.30
50162;DHT22;36061;48.116;11.612;2022-07-19T13:41:20;30.50;44.10
50162;DHT22;36061;48.116;11.612;2022-07-19T13:43:46;30.40;44.30
50162;DHT22;36061;48.116;11.612;2022-07-19T13:46:12;30.50;43.10
50162;DHT22;36061;48.116;11.612;2022-07-19T13:48:40;30.50;43.00
50162;DHT22;36061;48.116;11.612;2022-07-19T13:51:07;30.60;42.30
50162;DHT22;36061;48.116;11.612;2022-07-19T13:53:34;30.70;42.00
50162;DHT22;36061;48.116;11.612;2022-07-19T13:56:00;30.70;42.10
50162;DHT22;36061;48.116;11.612;2022-07-19T13:58:26;30.70;44.20
50162;DHT22;36061;48.116;11.612;2022-07-19T14:00:52;30.70;45.10
50162;DHT22;36061;48.116;11.612;2022-07-19T14:03:18;30.60;44.60
50162;DHT22;36061;48.116;11.612;2022-07-19T14:05:47;30.70;43.90
50162;DHT22;36061;48.116;11.612;2022-07-19T14:08:13;30.70;43.80
50162;DHT22;36061;48.116;11.612;2022-07-19T14:10:39;30.70;44.60
50162;DHT22;36061;48.116;11.612;2022-07-19T14:13:06;30.60;45.10
50162;DHT22;36061;48.116;11.612;2022-07-19T14:15:32;30.70;45.40
50162;DHT22;36061;48.116;11.612;2022-07-19T14:17:58;30.70;45.30
50162;DHT22;36061;48.116;11.612;2022-07-19T14:20:24;30.70;45.00
50162;DHT22;36061;48.116;11.612;2022-07-19T14:22:51;30.70;45.30
50162;DHT22;36061;48.116;11.612;2022-07-19T14:25:17;30.70;45.00
50162;DHT22;36061;48.116;11.612;2022-07-19T14:27:43;30.70;45.10
50162;DHT22;36061;48.116;11.612;2022-07-19T14:30:09;30.60;45.20
50162;DHT22;36061;48.116;11.612;2022-07-19T14:32:35;30.60;45.10
50162;DHT22;36061;48.116;11.612;2022-07-19T14:35:01;30.60;45.30
50162;DHT22;36061;48.116;11.612;2022-07-19T14:37:27;30.60;44.60
50162;DHT22;36061;48.116;11.612;2022-07-19T14:39:53;30.60;43.90
50162;DHT22;36061;48.116;11.612;2022-07-19T14:42:18;30.60;43.70
50162;DHT22;36061;48.116;11.612;2022-07-19T14:44:44;30.60;43.30
50162;DHT22;36061;48.116;11.612;2022-07-19T14:47:10;30.60;42.30
50162;DHT22;36061;48.116;11.612;2022-07-19T14:49:37;30.60;42.60
50162;DHT22;36061;48.116;11.612;2022-07-19T14:52:04;30.60;44.10
50162;DHT22;36061;48.116;11.612;2022-07-19T14:54:30;30.70;44.30
50162;DHT22;36061;48.116;11.612;2022-07-19T14:56:56;30.70;44.00
50162;DHT22;36061;48.116;11.612;2022-07-19T14:59:23;30.70;44.30
50162;DHT22;36061;48.116;11.612;2022-07-19T15:01:50;30.70;44.20
50162;DHT22;36061;48.116;11.612;2022-07-19T15:04:16;30.60;44.30
50162;DHT22;36061;48.116;11.612;2022-07-19T15:06:42;30.60;44.80
50162;DHT22;36061;48.116;11.612;2022-07-19T15:09:09;30.60;44.80
50162;DHT22;36061;48.116;11.612;2022-07-19T15:11:35;30.60;44.70
50162;DHT22;36061;48.116;11.612;2022-07-19T15:14:01;30.60;44.70
50162;DHT22;36061;48.116;11.612;2022-07-19T15:16:27;30.60;45.10
50162;DHT22;36061;48.116;11.612;2022-07-19T15:18:53;30.70;44.50
50162;DHT22;36061;48.116;11.612;2022-07-19T15:21:20;30.80;44.40
50162;DHT22;36061;48.116;11.612;2022-07-19T15:23:46;30.70;44.40
50162;DHT22;36061;48.116;11.612;2022-07-19T15:26:12;30.70;44.10
50162;DHT22;36061;48.116;11.612;2022-07-19T15:28:38;30.60;44.50
50162;DHT22;36061;48.116;11.612;2022-07-19T15:31:05;30.50;44.80
50162;DHT22;36061;48.116;11.612;2022-07-19T15:33:32;30.40;45.30
50162;DHT22;36061;48.116;11.612;2022-07-19T15:35:58;30.50;44.60
50162;DHT22;36061;48.116;11.612;2022-07-19T15:38:24;30.60;44.50
50162;DHT22;36061;48.116;11.612;2022-07-19T15:40:50;30.60;44.30
50162;DHT22;36061;48.116;11.612;2022-07-19T15:43:17;30.50;44.50
50162;DHT22;36061;48.116;11.612;2022-07-19T15:45:43;30.40;45.40
50162;DHT22;36061;48.116;11.612;2022-07-19T15:48:09;30.40;44.90
50162;DHT22;36061;48.116;11.612;2022-07-19T15:50:35;30.40;44.40
50162;DHT22;36061;48.116;11.612;2022-07-19T15:53:07;30.40;44.80
50162;DHT22;36061;48.116;11.612;2022-07-19T15:55:33;30.30;44.60
50162;DHT22;36061;48.116;11.612;2022-07-19T15:58:00;30.30;44.40
50162;DHT22;36061;48.116;11.612;2022-07-19T16:00:26;30.30;44.50
50162;DHT22;36061;48.116;11.612;2022-07-19T16:02:53;30.30;44.70
50162;DHT22;36061;48.116;11.612;2022-07-19T16:05:19;30.30;44.20
50162;DHT22;36061;48.116;11.612;2022-07-19T16:07:45;30.30;44.40
50162;DHT22;36061;48.116;11.612;2022-07-19T16:10:11;30.20;44.20
50162;DHT22;36061;48.116;11.612;2022-07-19T16:12:37;30.20;44.20
50162;DHT22;36061;48.116;11.612;2022-07-19T16:15:04;30.20;44.30
50162;DHT22;36061;48.116;11.612;2022-07-19T16:17:30;30.20;43.80
50162;DHT22;36061;48.116;11.612;2022-07-19T16:19:58;30.20;43.90
50162;DHT22;36061;48.116;11.612;2022-07-19T16:22:24;30.10;44.40
50162;DHT22;36061;48.116;11.612;2022-07-19T16:24:51;30.10;44.50
50162;DHT22;36061;48.116;11.612;2022-07-19T16:27:18;30.10;44.50
50162;DHT22;36061;48.116;11.612;2022-07-19T16:29:44;30.10;44.30
50162;DHT22;36061;48.116;11.612;2022-07-19T16:32:09;30.10;44.20
50162;DHT22;36061;48.116;11.612;2022-07-19T16:34:35;30.10;44.20
50162;DHT22;36061;48.116;11.612;2022-07-19T16:37:01;30.10;44.00
50162;DHT22;36061;48.116;11.612;2022-07-19T16:39:29;30.00;44.30
50162;DHT22;36061;48.116;11.612;2022-07-19T16:41:55;30.00;44.50
50162;DHT22;36061;48.116;11.612;2022-07-19T16:44:21;30.00;44.80
50162;DHT22;36061;48.116;11.612;2022-07-19T16:46:47;29.90;44.50
50162;DHT22;36061;48.116;11.612;2022-07-19T16:49:13;29.90;44.70
50162;DHT22;36061;48.116;11.612;2022-07-19T16:51:39;30.00;44.70
50162;DHT22;36061;48.116;11.612;2022-07-19T16:54:05;29.90;44.70
50162;DHT22;36061;48.116;11.612;2022-07-19T16:56:30;29.90;44.80
50162;DHT22;36061;48.116;11.612;2022-07-19T16:58:56;29.80;45.20
50162;DHT22;36061;48.116;11.612;2022-07-19T17:01:22;29.80;45.00
50162;DHT22;36061;48.116;11.612;2022-07-19T17:03:48;29.80;44.80
50162;DHT22;36061;48.116;11.612;2022-07-19T17:06:14;29.70;44.50
50162;DHT22;36061;48.116;11.612;2022-07-19T17:08:39;29.70;44.90
50162;DHT22;36061;48.116;11.612;2022-07-19T17:11:05;29.60;45.10
50162;DHT22;36061;48.116;11.612;2022-07-19T17:13:31;29.60;45.20
50162;DHT22;36061;48.116;11.612;2022-07-19T17:15:57;29.60;45.10
50162;DHT22;36061;48.116;11.612;2022-07-19T17:18:23;29.60;45.40
50162;DHT22;36061;48.116;11.612;2022-07-19T17:20:49;29.60;45.40
50162;DHT22;36061;48.116;11.612;2022-07-19T17:23:15;29.50;45.60
50162;DHT22;36061;48.116;11.612;2022-07-19T17:25:41;29.40;45.80
50162;DHT22;36061;48.116;11.612;2022-07-19T17:28:06;29.40;45.50
50162;DHT22;36061;48.116;11.612;2022-07-19T17:30:33;29.40;45.20
50162;DHT22;36061;48.116;11.612;2022-07-19T17:32:59;29.50;45.00
50162;DHT22;36061;48.116;11.612;2022-07-19T17:35:26;29.40;45.20
50162;DHT22;36061;48.116;11.612;2022-07-19T17:37:52;29.40;45.10
50162;DHT22;36061;48.116;11.612;2022-07-19T17:40:18;29.30;45.40
50162;DHT22;36061;48.116;11.612;2022-07-19T17:42:43;29.30;45.60
50162;DHT22;36061;48.116;11.612;2022-07-19T17:45:10;29.20;45.60
50162;DHT22;36061;48.116;11.612;2022-07-19T17:47:35;29.20;46.00
50162;DHT22;36061;48.116;11.612;2022-07-19T17:50:01;29.10;45.90
50162;DHT22;36061;48.116;11.612;2022-07-19T17:52:27;29.00;46.20
50162;DHT22;36061;48.116;11.612;2022-07-19T17:54:53;29.00;46.20
50162;DHT22;36061;48.116;11.612;2022-07-19T17:57:19;29.00;46.00
50162;DHT22;36061;48.116;11.612;2022-07-19T17:59:45;29.00;46.20
50162;DHT22;36061;48.116;11.612;2022-07-19T18:02:11;29.00;46.10
50162;DHT22;36061;48.116;11.612;2022-07-19T18:04:36;28.90;46.00
50162;DHT22;36061;48.116;11.612;2022-07-19T18:07:02;28.90;46.20
50162;DHT22;36061;48.116;11.612;2022-07-19T18:09:28;28.80;46.40
50162;DHT22;36061;48.116;11.612;2022-07-19T18:11:54;28.70;46.50
50162;DHT22;36061;48.116;11.612;2022-07-19T18:14:20;28.70;46.60
50162;DHT22;36061;48.116;11.612;2022-07-19T18:16:46;28.60;46.80
50162;DHT22;36061;48.116;11.612;2022-07-19T18:19:12;28.50;46.90
50162;DHT22;36061;48.116;11.612;2022-07-19T18:21:38;28.50;46.90
50162;DHT22;36061;48.116;11.612;2022-07-19T18:24:04;28.50;46.90
50162;DHT22;36061;48.116;11.612;2022-07-19T18:26:30;28.40;47.00
50162;DHT22;36061;48.116;11.612;2022-07-19T18:28:56;28.40;47.10
50162;DHT22;36061;48.116;11.612;2022-07-19T18:31:22;28.30;47.20
50162;DHT22;36061;48.116;11.612;2022-07-19T18:33:48;28.30;47.40
50162;DHT22;36061;48.116;11.612;2022-07-19T18:36:14;28.20;47.50
50162;DHT22;36061;48.116;11.612;2022-07-19T18:38:40;28.10;47.60
50162;DHT22;36061;48.116;11.612;2022-07-19T18:41:06;28.10;47.60
50162;DHT22;36061;48.116;11.612;2022-07-19T18:43:32;28.00;47.70
50162;DHT22;36061;48.116;11.612;2022-07-19T18:45:58;28.00;47.60
50162;DHT22;36061;48.116;11.612;2022-07-19T18:48:25;27.90;47.70
50162;DHT22;36061;48.116;11.612;2022-07-19T18:51:04;27.80;47.90
50162;DHT22;36061;48.116;11.612;2022-07-19T18:53:33;27.70;47.90
50162;DHT22;36061;48.116;11.612;2022-07-19T18:56:00;27.70;48.00
50162;DHT22;36061;48.116;11.612;2022-07-19T18:58:26;27.60;48.30
50162;DHT22;36061;48.116;11.612;2022-07-19T19:00:52;27.60;48.30
50162;DHT22;36061;48.116;11.612;2022-07-19T19:03:18;27.50;48.50
50162;DHT22;36061;48.116;11.612;2022-07-19T19:05:44;27.40;48.50
50162;DHT22;36061;48.116;11.612;2022-07-19T19:08:11;27.40;48.50
50162;DHT22;36061;48.116;11.612;2022-07-19T19:10:37;27.30;48.70
50162;DHT22;36061;48.116;11.612;2022-07-19T19:13:03;27.30;49.00
50162;DHT22;36061;48.116;11.612;2022-07-19T19:15:30;27.20;49.10
50162;DHT22;36061;48.116;11.612;2022-07-19T19:17:56;27.20;49.30
50162;DHT22;36061;48.116;11.612;2022-07-19T19:20:22;27.10;49.30
50162;DHT22;36061;48.116;11.612;2022-07-19T19:22:48;27.00;49.50
50162;DHT22;36061;48.116;11.612;2022-07-19T19:25:14;27.00;49.70
50162;DHT22;36061;48.116;11.612;2022-07-19T19:27:42;26.90;49.90
50162;DHT22;36061;48.116;11.612;2022-07-19T19:30:09;26.90;50.00
50162;DHT22;36061;48.116;11.612;2022-07-19T19:32:35;26.80;50.20
50162;DHT22;36061;48.116;11.612;2022-07-19T19:35:01;26.70;50.40
50162;DHT22;36061;48.116;11.612;2022-07-19T19:37:27;26.70;50.60
50162;DHT22;36061;48.116;11.612;2022-07-19T19:39:54;26.60;50.80
50162;DHT22;36061;48.116;11.612;2022-07-19T19:42:20;26.60;51.00
50162;DHT22;36061;48.116;11.612;2022-07-19T19:44:46;26.50;51.20
50162;DHT22;36061;48.116;11.612;2022-07-19T19:47:14;26.50;51.40
50162;DHT22;36061;48.116;11.612;2022-07-19T19:49:40;26.40;51.50